Odell, Oregon
Current Conditions -  °F | °C
As of 2:59 AM on Saturday 25 Oct 2014 (Local Time) from K4S2 Reporting Station
Overcast Overcast  
Wind Chill: 11°   Ceiling: 2800
Heat Index: 11°   Visibility: 10mi
Dew Point:   Wind: 0mph
Humidity: 88%   Direction: NA
Pressure: 29.76"   Gusts: NA
Location:  45.63°N, 121.55°W
Report Text: K4S2 250959Z AUTO 00000KT 10SM SCT021 OVC028 11/09 A2976 RMK AO2 SLP092 T01100090
Loading
Personal Weather Stations






























Interactive Weather Map
Tropical Storm Tracking
New forecast layout! Learn more

10-Day Weather Forecast

Advertisements
Track Severe Weather on mobile